Time;durP1;ratioP1;P1;durP2;ratioP2;P2;SDS_P1;SDS_P2;PMS_P1;PMS_P2;Temp;Humidity;BMP_temperature;BMP_pressure;BME280_temperature;BME280_humidity;BME280_pressure;Samples;Min_cycle;Max_cycle;Signal;HPM_P1;HPM_P2
2024/03/24 00:00:18;;;;;;;5.28;3.45;;;;;;;;;;5086624;28;20024;-55
2024/03/24 00:02:44;;;;;;;8.48;3.22;;;;;;;;;;5093103;28;20022;-55
2024/03/24 00:05:09;;;;;;;6.43;2.90;;;;;;;;;;5074407;28;20480;-55
2024/03/24 00:07:35;;;;;;;8.68;3.25;;;;;;;;;;5078023;28;20392;-55
2024/03/24 00:10:01;;;;;;;6.32;3.17;;;;;;;;;;5076720;28;20043;-55
2024/03/24 00:12:27;;;;;;;5.22;3.30;;;;;;;;;;5089238;28;20033;-55
2024/03/24 00:14:54;;;;;;;9.20;3.35;;;;;;;;;;5073966;28;20039;-54
2024/03/24 00:17:21;;;;;;;8.10;2.63;;;;;;;;;;5082777;28;20016;-53
2024/03/24 00:19:47;;;;;;;5.40;3.10;;;;;;;;;;5082691;28;20027;-58
2024/03/24 00:22:13;;;;;;;7.03;3.30;;;;;;;;;;5085047;28;20518;-58
2024/03/24 00:24:39;;;;;;;9.15;2.75;;;;;;;;;;5079111;28;20040;-57
2024/03/24 00:27:05;;;;;;;4.22;2.78;;;;;;;;;;5077820;28;20036;-57
2024/03/24 00:29:31;;;;;;;5.40;2.85;;;;;;;;;;5074065;28;20400;-57
2024/03/24 00:31:57;;;;;;;9.07;2.88;;;;;;;;;;5074891;28;20040;-58
2024/03/24 00:34:23;;;;;;;4.53;2.58;;;;;;;;;;5085736;28;20024;-57
2024/03/24 00:36:49;;;;;;;7.60;3.15;;;;;;;;;;5086051;28;20033;-57
2024/03/24 00:39:15;;;;;;;6.07;2.97;;;;;;;;;;5086837;28;20067;-57
2024/03/24 00:41:41;;;;;;;7.03;3.17;;;;;;;;;;5076697;28;20158;-57
2024/03/24 00:44:07;;;;;;;9.35;3.38;;;;;;;;;;5093326;28;20190;-56
2024/03/24 00:46:33;;;;;;;6.63;3.03;;;;;;;;;;5084221;28;20094;-58
2024/03/24 00:48:59;;;;;;;5.95;2.63;;;;;;;;;;5093899;28;20024;-57
2024/03/24 00:51:26;;;;;;;6.65;2.70;;;;;;;;;;5093952;28;20028;-56
2024/03/24 00:53:52;;;;;;;6.15;3.30;;;;;;;;;;5092661;28;20081;-57
2024/03/24 00:56:18;;;;;;;8.40;3.05;;;;;;;;;;5093636;28;20028;-57
2024/03/24 00:58:44;;;;;;;6.38;2.97;;;;;;;;;;5093679;28;20028;-56
2024/03/24 01:01:10;;;;;;;5.70;3.13;;;;;;;;;;5093695;28;20055;-57
2024/03/24 01:03:36;;;;;;;7.32;3.33;;;;;;;;;;5079483;28;20025;-57
2024/03/24 01:06:04;;;;;;;5.72;3.30;;;;;;;;;;5073381;28;20035;-57
2024/03/24 01:08:30;;;;;;;7.03;3.13;;;;;;;;;;5080351;28;20062;-57
2024/03/24 01:10:56;;;;;;;6.47;3.10;;;;;;;;;;5099879;28;20062;-58
2024/03/24 01:13:22;;;;;;;5.45;3.15;;;;;;;;;;5087817;28;20063;-55
2024/03/24 01:15:48;;;;;;;6.75;2.97;;;;;;;;;;5093187;28;20035;-58
2024/03/24 01:18:14;;;;;;;6.07;3.28;;;;;;;;;;5087529;28;20028;-58
2024/03/24 01:20:46;;;;;;;5.47;3.33;;;;;;;;;;5089728;28;20031;-57
2024/03/24 01:23:12;;;;;;;7.70;3.35;;;;;;;;;;5086806;28;20052;-57
2024/03/24 01:25:38;;;;;;;4.80;2.70;;;;;;;;;;5103784;28;20537;-55
2024/03/24 01:28:04;;;;;;;5.05;2.80;;;;;;;;;;5105389;28;20031;-58
2024/03/24 01:30:30;;;;;;;6.47;3.50;;;;;;;;;;5080962;28;20077;-58
2024/03/24 01:32:55;;;;;;;4.80;3.22;;;;;;;;;;5081538;28;20032;-58
2024/03/24 01:35:21;;;;;;;6.78;3.10;;;;;;;;;;5086531;28;20025;-58
2024/03/24 01:37:47;;;;;;;9.45;3.45;;;;;;;;;;5092988;28;20076;-58
2024/03/24 01:40:13;;;;;;;10.38;4.22;;;;;;;;;;5093084;28;20048;-58
2024/03/24 01:42:39;;;;;;;6.45;3.50;;;;;;;;;;5087765;28;20103;-58
2024/03/24 01:45:05;;;;;;;7.57;3.45;;;;;;;;;;5092246;28;20051;-58
2024/03/24 01:47:34;;;;;;;7.82;3.60;;;;;;;;;;5078148;28;20139;-58
2024/03/24 01:50:00;;;;;;;6.00;3.72;;;;;;;;;;5072727;28;20094;-58
2024/03/24 01:52:26;;;;;;;8.75;4.40;;;;;;;;;;5092333;28;20081;-58
2024/03/24 01:54:52;;;;;;;8.18;3.95;;;;;;;;;;5092687;28;20429;-58
2024/03/24 01:57:18;;;;;;;7.38;3.65;;;;;;;;;;5090499;28;20545;-58
2024/03/24 01:59:44;;;;;;;5.07;3.55;;;;;;;;;;5090278;28;20046;-58
2024/03/24 02:02:10;;;;;;;6.35;3.58;;;;;;;;;;5080737;28;20035;-56
2024/03/24 02:04:45;;;;;;;7.70;4.05;;;;;;;;;;5083909;28;20035;-57
2024/03/24 02:07:11;;;;;;;5.35;3.50;;;;;;;;;;5085368;28;20476;-56
2024/03/24 02:09:37;;;;;;;5.05;3.63;;;;;;;;;;5089484;28;20035;-57
2024/03/24 02:12:04;;;;;;;8.13;3.63;;;;;;;;;;5085826;28;20037;-57
2024/03/24 02:14:31;;;;;;;6.43;3.67;;;;;;;;;;5081103;28;20502;-57
2024/03/24 02:16:57;;;;;;;9.43;3.35;;;;;;;;;;5084104;28;20029;-56
2024/03/24 02:19:23;;;;;;;7.55;4.25;;;;;;;;;;5081224;28;20031;-58
2024/03/24 02:21:49;;;;;;;9.57;3.22;;;;;;;;;;5086607;28;20052;-57
2024/03/24 02:24:15;;;;;;;5.70;3.42;;;;;;;;;;5071272;28;20028;-57
2024/03/24 02:26:41;;;;;;;6.45;3.72;;;;;;;;;;5081268;28;20476;-57
2024/03/24 02:29:12;;;;;;;7.25;3.33;;;;;;;;;;5083517;28;20116;-56
2024/03/24 02:31:38;;;;;;;7.55;3.88;;;;;;;;;;5080687;28;20116;-57
2024/03/24 02:34:04;;;;;;;7.93;4.03;;;;;;;;;;5079055;28;20404;-56
2024/03/24 02:36:31;;;;;;;10.30;3.35;;;;;;;;;;5072446;28;20086;-58
2024/03/24 02:38:57;;;;;;;10.15;3.83;;;;;;;;;;5083540;28;20028;-56
2024/03/24 02:41:24;;;;;;;7.80;3.75;;;;;;;;;;5074155;28;20081;-57
2024/03/24 02:43:50;;;;;;;5.75;3.15;;;;;;;;;;5071575;28;20040;-58
2024/03/24 02:46:16;;;;;;;9.52;3.90;;;;;;;;;;5087225;28;20036;-56
2024/03/24 02:48:42;;;;;;;7.90;3.97;;;;;;;;;;5089363;28;20084;-57
2024/03/24 02:51:08;;;;;;;6.28;3.70;;;;;;;;;;5080720;28;20396;-56
2024/03/24 02:53:34;;;;;;;9.18;3.33;;;;;;;;;;5091057;28;20432;-57
2024/03/24 02:56:00;;;;;;;8.15;3.75;;;;;;;;;;5077035;28;20025;-57
2024/03/24 02:58:26;;;;;;;8.10;4.05;;;;;;;;;;5071349;28;20040;-58
2024/03/24 03:00:51;;;;;;;9.13;3.67;;;;;;;;;;5089015;28;20399;-57
2024/03/24 03:03:17;;;;;;;6.22;3.88;;;;;;;;;;5091435;28;20039;-58
2024/03/24 03:05:45;;;;;;;13.50;4.85;;;;;;;;;;5091851;28;20024;-57
2024/03/24 03:08:11;;;;;;;8.70;4.28;;;;;;;;;;5091773;28;20107;-57
2024/03/24 03:10:38;;;;;;;10.18;4.72;;;;;;;;;;5098099;28;20503;-57
2024/03/24 03:13:04;;;;;;;7.15;3.88;;;;;;;;;;5111829;28;20095;-57
2024/03/24 03:15:30;;;;;;;9.13;4.28;;;;;;;;;;5091296;28;20104;-58
2024/03/24 03:17:56;;;;;;;12.65;4.85;;;;;;;;;;5088446;28;20373;-58
2024/03/24 03:20:22;;;;;;;7.82;4.07;;;;;;;;;;5088130;28;20031;-58
2024/03/24 03:22:48;;;;;;;8.50;3.80;;;;;;;;;;5076096;28;20056;-57
2024/03/24 03:25:14;;;;;;;8.68;3.97;;;;;;;;;;5078479;28;20052;-57
2024/03/24 03:27:41;;;;;;;6.40;3.65;;;;;;;;;;5082185;28;20039;-57
2024/03/24 03:30:07;;;;;;;8.25;3.60;;;;;;;;;;5083727;28;20484;-56
2024/03/24 03:32:33;;;;;;;7.57;3.85;;;;;;;;;;5081617;28;20089;-56
2024/03/24 03:34:59;;;;;;;9.80;4.70;;;;;;;;;;5082208;28;20040;-58
2024/03/24 03:37:25;;;;;;;8.27;4.05;;;;;;;;;;5088938;28;20024;-57
2024/03/24 03:39:51;;;;;;;6.43;3.70;;;;;;;;;;5089887;28;20025;-55
2024/03/24 03:42:17;;;;;;;8.82;4.30;;;;;;;;;;5094761;28;20031;-58
2024/03/24 03:44:46;;;;;;;8.55;3.60;;;;;;;;;;5090533;28;20476;-57
2024/03/24 03:47:14;;;;;;;12.88;4.00;;;;;;;;;;5089121;28;20365;-56
2024/03/24 03:49:40;;;;;;;12.65;4.93;;;;;;;;;;5089000;28;20031;-58
2024/03/24 03:52:06;;;;;;;5.55;3.60;;;;;;;;;;5075918;28;20032;-57
2024/03/24 03:54:32;;;;;;;13.30;4.85;;;;;;;;;;5089716;28;20032;-57
2024/03/24 03:56:58;;;;;;;7.25;4.05;;;;;;;;;;5094930;28;20050;-55
2024/03/24 03:59:24;;;;;;;9.52;3.92;;;;;;;;;;5080641;28;20040;-58
2024/03/24 04:01:50;;;;;;;7.60;3.90;;;;;;;;;;5093097;28;20012;-56
2024/03/24 04:04:16;;;;;;;6.32;3.55;;;;;;;;;;5084944;28;20054;-57
2024/03/24 04:06:42;;;;;;;13.15;4.70;;;;;;;;;;5077547;28;20477;-56
2024/03/24 04:09:12;;;;;;;9.02;4.43;;;;;;;;;;5090216;28;20027;-56
2024/03/24 04:11:38;;;;;;;12.55;4.43;;;;;;;;;;5085675;28;20033;-56
2024/03/24 04:14:05;;;;;;;10.02;4.50;;;;;;;;;;5074506;28;20107;-57
2024/03/24 04:16:31;;;;;;;9.57;4.47;;;;;;;;;;5091389;28;20591;-58
2024/03/24 04:18:57;;;;;;;8.18;4.53;;;;;;;;;;5084805;28;20384;-57
2024/03/24 04:21:23;;;;;;;8.70;4.25;;;;;;;;;;5088988;28;20063;-57
2024/03/24 04:23:48;;;;;;;8.10;4.40;;;;;;;;;;5082345;28;20032;-57
2024/03/24 04:26:14;;;;;;;11.25;4.53;;;;;;;;;;5086752;28;20024;-57
2024/03/24 04:28:41;;;;;;;8.27;4.43;;;;;;;;;;5087965;28;20107;-54
2024/03/24 04:31:06;;;;;;;7.53;3.78;;;;;;;;;;5084423;28;20020;-54
2024/03/24 04:33:32;;;;;;;9.00;4.53;;;;;;;;;;5079393;28;20032;-55
2024/03/24 04:35:58;;;;;;;8.80;4.50;;;;;;;;;;5080863;28;20020;-55
2024/03/24 04:38:24;;;;;;;10.88;4.85;;;;;;;;;;5088487;28;20020;-55
2024/03/24 04:40:50;;;;;;;10.98;4.53;;;;;;;;;;5083575;28;20039;-54
2024/03/24 04:43:16;;;;;;;9.48;4.63;;;;;;;;;;5089955;28;20030;-55
2024/03/24 04:45:43;;;;;;;10.23;4.40;;;;;;;;;;5093884;28;20028;-54
2024/03/24 04:48:11;;;;;;;10.00;4.80;;;;;;;;;;5086028;28;20105;-54
2024/03/24 04:50:37;;;;;;;8.45;4.20;;;;;;;;;;5080637;28;20035;-54
2024/03/24 04:53:03;;;;;;;8.50;4.38;;;;;;;;;;5092097;28;20073;-55
2024/03/24 04:55:29;;;;;;;7.70;4.05;;;;;;;;;;5084427;28;20036;-55
2024/03/24 04:57:55;;;;;;;7.28;4.25;;;;;;;;;;5085476;28;20035;-55
2024/03/24 05:00:21;;;;;;;7.90;4.50;;;;;;;;;;5086677;28;20028;-53
2024/03/24 05:02:47;;;;;;;8.25;4.95;;;;;;;;;;5069277;28;20164;-52
2024/03/24 05:05:13;;;;;;;9.20;4.10;;;;;;;;;;5085875;28;20500;-52
2024/03/24 05:07:39;;;;;;;12.68;4.72;;;;;;;;;;5082531;28;20083;-54
2024/03/24 05:10:05;;;;;;;9.25;4.55;;;;;;;;;;5090610;28;20070;-52
2024/03/24 05:12:31;;;;;;;10.35;4.53;;;;;;;;;;5091010;28;20096;-52
2024/03/24 05:14:57;;;;;;;10.52;4.68;;;;;;;;;;5086008;28;20036;-51
2024/03/24 05:17:23;;;;;;;14.07;4.25;;;;;;;;;;5089818;28;20052;-53
2024/03/24 05:19:50;;;;;;;7.15;4.05;;;;;;;;;;5086521;28;20061;-53
2024/03/24 05:22:16;;;;;;;7.65;4.55;;;;;;;;;;5091174;28;20044;-51
2024/03/24 05:24:42;;;;;;;8.88;4.88;;;;;;;;;;5089597;28;20028;-54
2024/03/24 05:27:08;;;;;;;7.03;4.45;;;;;;;;;;5091137;28;20036;-52
2024/03/24 05:29:34;;;;;;;9.45;4.45;;;;;;;;;;5089230;28;20031;-53
2024/03/24 05:32:00;;;;;;;9.10;4.65;;;;;;;;;;5091588;28;20082;-52
2024/03/24 05:34:26;;;;;;;12.30;4.30;;;;;;;;;;5085195;28;20356;-53
2024/03/24 05:36:53;;;;;;;12.13;4.25;;;;;;;;;;5087061;28;20032;-53
2024/03/24 05:39:20;;;;;;;9.35;4.25;;;;;;;;;;5084462;28;20031;-53
2024/03/24 05:41:49;;;;;;;10.60;4.50;;;;;;;;;;5086786;28;20028;-50
2024/03/24 05:44:16;;;;;;;8.88;4.18;;;;;;;;;;5088459;28;20035;-55
2024/03/24 05:46:42;;;;;;;10.73;4.20;;;;;;;;;;5082127;28;20422;-54
2024/03/24 05:49:10;;;;;;;9.48;4.10;;;;;;;;;;5087418;28;20028;-53
2024/03/24 05:51:36;;;;;;;5.45;3.42;;;;;;;;;;5076113;28;20052;-54
2024/03/24 05:54:02;;;;;;;6.25;3.78;;;;;;;;;;5087178;28;20388;-51
2024/03/24 05:56:28;;;;;;;7.18;3.60;;;;;;;;;;5084008;28;20035;-53
2024/03/24 05:58:54;;;;;;;7.82;4.18;;;;;;;;;;5090145;28;20024;-54
2024/03/24 06:01:19;;;;;;;9.80;3.65;;;;;;;;;;5089176;28;20027;-51
2024/03/24 06:03:45;;;;;;;8.10;4.55;;;;;;;;;;5087855;28;20024;-52
2024/03/24 06:06:11;;;;;;;7.85;3.75;;;;;;;;;;5088743;28;20020;-53
2024/03/24 06:08:37;;;;;;;8.10;3.75;;;;;;;;;;5082435;28;20063;-52
2024/03/24 06:11:05;;;;;;;5.22;3.60;;;;;;;;;;5089000;28;20034;-54
2024/03/24 06:13:32;;;;;;;7.55;4.10;;;;;;;;;;5087258;28;20132;-53
2024/03/24 06:16:00;;;;;;;5.68;3.58;;;;;;;;;;5089620;28;20039;-51
2024/03/24 06:18:26;;;;;;;7.97;3.58;;;;;;;;;;5079077;28;20036;-55
2024/03/24 06:20:53;;;;;;;7.07;3.97;;;;;;;;;;5080331;28;20081;-54
2024/03/24 06:23:20;;;;;;;8.85;3.72;;;;;;;;;;5080906;28;20024;-52
2024/03/24 06:25:46;;;;;;;9.13;3.35;;;;;;;;;;5089237;28;20032;-51
2024/03/24 06:28:12;;;;;;;5.82;4.05;;;;;;;;;;5089553;28;20028;-54
2024/03/24 06:30:38;;;;;;;5.95;3.55;;;;;;;;;;5083141;28;20147;-53
2024/03/24 06:33:05;;;;;;;7.10;3.67;;;;;;;;;;5086962;28;20040;-51
2024/03/24 06:35:31;;;;;;;10.05;4.25;;;;;;;;;;5088759;28;20115;-53
2024/03/24 06:37:57;;;;;;;7.38;3.55;;;;;;;;;;5089715;28;20535;-53
2024/03/24 06:40:25;;;;;;;5.22;3.20;;;;;;;;;;5087557;28;20024;-51
2024/03/24 06:43:02;;;;;;;9.93;4.05;;;;;;;;;;5088644;28;20012;-55
2024/03/24 06:45:30;;;;;;;8.60;3.40;;;;;;;;;;5082799;28;20028;-51
2024/03/24 06:47:56;;;;;;;6.03;3.67;;;;;;;;;;5088565;28;20523;-58
2024/03/24 06:50:22;;;;;;;6.97;3.55;;;;;;;;;;5084222;28;20028;-58
2024/03/24 06:52:52;;;;;;;6.43;3.25;;;;;;;;;;5086338;28;20097;-57
2024/03/24 06:55:18;;;;;;;7.18;3.17;;;;;;;;;;5083989;28;20031;-57
2024/03/24 06:57:44;;;;;;;6.85;3.38;;;;;;;;;;5088968;28;20024;-56
2024/03/24 07:00:11;;;;;;;5.22;3.53;;;;;;;;;;5083212;28;20031;-57
2024/03/24 07:02:37;;;;;;;6.90;3.08;;;;;;;;;;5083839;28;20036;-57
2024/03/24 07:05:03;;;;;;;8.65;3.30;;;;;;;;;;5082093;28;20111;-57
2024/03/24 07:07:30;;;;;;;4.60;2.88;;;;;;;;;;5088757;28;20404;-57
2024/03/24 07:09:56;;;;;;;7.57;3.15;;;;;;;;;;5088132;28;20028;-58
2024/03/24 07:12:22;;;;;;;8.02;3.38;;;;;;;;;;5087086;28;20553;-57
2024/03/24 07:14:49;;;;;;;6.43;3.17;;;;;;;;;;5092215;28;20399;-58
2024/03/24 07:17:15;;;;;;;4.97;3.03;;;;;;;;;;5090000;28;20016;-58
2024/03/24 07:19:41;;;;;;;6.85;2.63;;;;;;;;;;5089903;28;20549;-58
2024/03/24 07:22:07;;;;;;;6.78;3.20;;;;;;;;;;5087245;28;20096;-56
2024/03/24 07:24:33;;;;;;;6.78;2.85;;;;;;;;;;5092980;28;20498;-58
2024/03/24 07:26:59;;;;;;;6.05;3.13;;;;;;;;;;5092006;28;20028;-57
2024/03/24 07:29:25;;;;;;;7.28;2.75;;;;;;;;;;5091157;28;20058;-56
2024/03/24 07:31:51;;;;;;;5.22;2.58;;;;;;;;;;5088276;28;20032;-57
2024/03/24 07:34:17;;;;;;;3.97;2.47;;;;;;;;;;5091926;28;20039;-58
2024/03/24 07:36:43;;;;;;;4.55;2.70;;;;;;;;;;5083242;28;20031;-58
2024/03/24 07:39:09;;;;;;;4.45;2.67;;;;;;;;;;5087142;28;20032;-58
2024/03/24 07:41:35;;;;;;;6.75;2.92;;;;;;;;;;5090030;28;20020;-58
2024/03/24 07:44:01;;;;;;;5.40;2.47;;;;;;;;;;5086620;28;20036;-58
2024/03/24 07:46:28;;;;;;;3.38;2.00;;;;;;;;;;5088665;28;20107;-57
2024/03/24 07:48:54;;;;;;;5.63;2.10;;;;;;;;;;5092256;28;20080;-57
2024/03/24 07:51:19;;;;;;;3.35;2.08;;;;;;;;;;5092166;28;20020;-59
2024/03/24 07:53:48;;;;;;;3.22;2.08;;;;;;;;;;5091243;28;20035;-58
2024/03/24 07:56:14;;;;;;;5.70;3.00;;;;;;;;;;5089246;28;20020;-58
2024/03/24 07:58:40;;;;;;;4.15;2.00;;;;;;;;;;5090392;28;20093;-57
2024/03/24 08:01:06;;;;;;;5.30;2.00;;;;;;;;;;5088359;28;20058;-59
2024/03/24 08:03:32;;;;;;;3.00;2.25;;;;;;;;;;5091597;28;20031;-57
2024/03/24 08:05:58;;;;;;;4.07;2.30;;;;;;;;;;5091032;28;20031;-59
2024/03/24 08:08:23;;;;;;;3.80;2.03;;;;;;;;;;5093311;28;20081;-59
2024/03/24 08:10:49;;;;;;;4.43;2.33;;;;;;;;;;5087813;28;20036;-59
2024/03/24 08:13:15;;;;;;;2.50;1.90;;;;;;;;;;5089258;28;20458;-59
2024/03/24 08:15:41;;;;;;;2.92;1.85;;;;;;;;;;5089732;28;20016;-57
2024/03/24 08:18:07;;;;;;;2.75;1.75;;;;;;;;;;5091425;28;20028;-58
2024/03/24 08:20:33;;;;;;;6.05;1.70;;;;;;;;;;5090140;28;20027;-56
2024/03/24 08:22:59;;;;;;;4.50;2.03;;;;;;;;;;5090537;28;20070;-57
2024/03/24 08:25:25;;;;;;;3.22;1.85;;;;;;;;;;5087323;28;20105;-58
2024/03/24 08:27:51;;;;;;;2.88;1.75;;;;;;;;;;5090635;28;20494;-58
2024/03/24 08:30:17;;;;;;;3.67;1.75;;;;;;;;;;5088840;28;20040;-59
2024/03/24 08:32:43;;;;;;;4.55;2.63;;;;;;;;;;5085314;28;20037;-57
2024/03/24 08:35:09;;;;;;;3.58;1.75;;;;;;;;;;5091243;28;20028;-58
2024/03/24 08:37:35;;;;;;;3.00;1.33;;;;;;;;;;5092929;28;20482;-59
2024/03/24 08:40:02;;;;;;;3.10;1.75;;;;;;;;;;5087109;28;20081;-58
2024/03/24 08:42:28;;;;;;;4.50;1.70;;;;;;;;;;5079646;28;20028;-58
2024/03/24 08:44:54;;;;;;;7.90;2.05;;;;;;;;;;5090407;28;20047;-59
2024/03/24 08:47:20;;;;;;;3.45;1.40;;;;;;;;;;5087429;28;20040;-57
2024/03/24 08:49:46;;;;;;;3.08;1.90;;;;;;;;;;5092337;28;20093;-58
2024/03/24 08:52:12;;;;;;;5.35;1.80;;;;;;;;;;5092321;28;20089;-58
2024/03/24 08:54:37;;;;;;;3.50;1.80;;;;;;;;;;5091676;28;20028;-58
2024/03/24 08:57:04;;;;;;;5.13;1.80;;;;;;;;;;5090797;28;20043;-55
2024/03/24 08:59:30;;;;;;;2.75;1.92;;;;;;;;;;5088353;28;20043;-58
2024/03/24 09:01:55;;;;;;;3.38;1.70;;;;;;;;;;5092181;28;20032;-56
2024/03/24 09:04:22;;;;;;;6.45;2.00;;;;;;;;;;5088238;28;20031;-58
2024/03/24 09:06:48;;;;;;;6.93;2.08;;;;;;;;;;5090985;28;20036;-58
2024/03/24 09:09:14;;;;;;;5.45;2.15;;;;;;;;;;5091084;28;20035;-58
2024/03/24 09:11:40;;;;;;;3.80;1.60;;;;;;;;;;5091800;28;20031;-58
2024/03/24 09:14:06;;;;;;;4.15;2.13;;;;;;;;;;5091026;28;20028;-58
2024/03/24 09:16:32;;;;;;;4.22;1.95;;;;;;;;;;5083340;28;20028;-59
2024/03/24 09:18:58;;;;;;;4.55;2.25;;;;;;;;;;5089134;28;20107;-59
2024/03/24 09:21:27;;;;;;;4.50;1.75;;;;;;;;;;5091950;28;20051;-61
2024/03/24 09:23:54;;;;;;;3.72;1.50;;;;;;;;;;5081307;28;20042;-59
2024/03/24 09:26:20;;;;;;;5.05;2.17;;;;;;;;;;5090009;28;20023;-58
2024/03/24 09:28:49;;;;;;;2.05;1.50;;;;;;;;;;5086630;28;20024;-59
2024/03/24 09:31:15;;;;;;;5.03;1.73;;;;;;;;;;5088535;28;20100;-59
2024/03/24 09:33:41;;;;;;;3.90;2.15;;;;;;;;;;5085865;28;20021;-59
2024/03/24 09:36:07;;;;;;;2.97;1.75;;;;;;;;;;5085417;28;20464;-59
2024/03/24 09:38:33;;;;;;;4.30;2.45;;;;;;;;;;5080013;28;20027;-59
2024/03/24 09:40:59;;;;;;;6.35;2.22;;;;;;;;;;5080434;28;20016;-58
2024/03/24 09:43:25;;;;;;;4.80;2.13;;;;;;;;;;5081483;28;20070;-58
2024/03/24 09:45:51;;;;;;;6.45;2.33;;;;;;;;;;5083143;28;20028;-59
2024/03/24 09:48:17;;;;;;;4.13;2.30;;;;;;;;;;5090437;28;20118;-59
2024/03/24 09:50:43;;;;;;;4.70;2.47;;;;;;;;;;5090366;28;20421;-59
2024/03/24 09:53:10;;;;;;;2.92;2.08;;;;;;;;;;5088538;28;20134;-59
2024/03/24 09:55:36;;;;;;;3.88;2.25;;;;;;;;;;5085058;28;20043;-59
2024/03/24 09:58:02;;;;;;;4.70;1.95;;;;;;;;;;5080678;28;20033;-59
2024/03/24 10:00:28;;;;;;;3.92;2.22;;;;;;;;;;5077108;28;20480;-59
2024/03/24 10:02:55;;;;;;;3.75;2.70;;;;;;;;;;5081659;28;20029;-58
2024/03/24 10:05:21;;;;;;;5.60;2.45;;;;;;;;;;5080290;28;20111;-59
2024/03/24 10:07:48;;;;;;;6.78;2.50;;;;;;;;;;5085531;28;20036;-59
2024/03/24 10:10:14;;;;;;;8.45;2.95;;;;;;;;;;5085289;28;20024;-59
2024/03/24 10:12:51;;;;;;;5.00;2.70;;;;;;;;;;5088789;28;20039;-59
2024/03/24 10:15:18;;;;;;;4.05;2.90;;;;;;;;;;5087017;28;20027;-59
2024/03/24 10:17:44;;;;;;;5.75;2.97;;;;;;;;;;5104840;28;20031;-58
2024/03/24 10:20:13;;;;;;;8.93;2.85;;;;;;;;;;5087769;28;20051;-58
2024/03/24 10:22:39;;;;;;;3.33;2.63;;;;;;;;;;5087734;28;20046;-58
2024/03/24 10:25:11;;;;;;;4.63;2.42;;;;;;;;;;5077956;28;20028;-57
2024/03/24 10:27:39;;;;;;;3.63;2.53;;;;;;;;;;5084088;28;20050;-57
2024/03/24 10:30:05;;;;;;;5.13;2.40;;;;;;;;;;5084601;28;20547;-57
2024/03/24 10:32:31;;;;;;;5.93;2.42;;;;;;;;;;5084273;28;20073;-59
2024/03/24 10:35:00;;;;;;;4.35;2.50;;;;;;;;;;5089328;28;20111;-58
2024/03/24 10:37:27;;;;;;;4.80;2.88;;;;;;;;;;5085224;28;20081;-58
2024/03/24 10:39:54;;;;;;;5.13;2.90;;;;;;;;;;5085448;28;20450;-58
2024/03/24 10:42:20;;;;;;;8.55;2.90;;;;;;;;;;5084457;28;20483;-59
2024/03/24 10:44:46;;;;;;;4.20;2.90;;;;;;;;;;5086327;28;20481;-58
2024/03/24 10:47:13;;;;;;;4.80;2.90;;;;;;;;;;5086166;28;20127;-59
2024/03/24 10:49:40;;;;;;;8.27;3.00;;;;;;;;;;5086620;28;20032;-56
2024/03/24 10:52:08;;;;;;;3.03;2.25;;;;;;;;;;5082129;28;20562;-58
2024/03/24 10:54:34;;;;;;;4.75;2.60;;;;;;;;;;5080145;28;20111;-57
2024/03/24 10:57:01;;;;;;;5.53;2.85;;;;;;;;;;5084501;28;20032;-58
2024/03/24 10:59:29;;;;;;;3.85;2.28;;;;;;;;;;5089004;28;20039;-58
2024/03/24 11:01:55;;;;;;;6.10;2.72;;;;;;;;;;5084380;28;20021;-58
2024/03/24 11:04:20;;;;;;;4.90;2.60;;;;;;;;;;5085503;28;20020;-58
2024/03/24 11:06:47;;;;;;;5.30;3.08;;;;;;;;;;5081753;28;20048;-58
2024/03/24 11:09:13;;;;;;;10.25;3.28;;;;;;;;;;5087335;28;20039;-58
2024/03/24 11:11:40;;;;;;;5.95;2.90;;;;;;;;;;5085407;28;20130;-56
2024/03/24 11:14:07;;;;;;;4.65;2.92;;;;;;;;;;5087175;28;20032;-58
2024/03/24 11:16:34;;;;;;;4.10;2.92;;;;;;;;;;5088770;28;20076;-58
2024/03/24 11:19:09;;;;;;;8.15;3.20;;;;;;;;;;5090230;28;20032;-58
2024/03/24 11:21:39;;;;;;;6.47;2.80;;;;;;;;;;5083845;28;20094;-58
2024/03/24 11:24:09;;;;;;;3.45;2.75;;;;;;;;;;5089676;28;20411;-58
2024/03/24 11:26:35;;;;;;;7.15;2.60;;;;;;;;;;5092491;28;20031;-58
2024/03/24 11:29:01;;;;;;;4.97;2.95;;;;;;;;;;5090561;28;20028;-56
2024/03/24 11:31:27;;;;;;;4.93;2.95;;;;;;;;;;5085113;28;20078;-57
2024/03/24 11:34:10;;;;;;;5.55;2.28;;;;;;;;;;5090047;28;20024;-58
2024/03/24 11:36:37;;;;;;;6.57;2.40;;;;;;;;;;5090534;28;20036;-57
2024/03/24 11:39:05;;;;;;;5.10;2.35;;;;;;;;;;5089793;28;20095;-56
2024/03/24 11:41:31;;;;;;;6.18;2.70;;;;;;;;;;5083969;28;20477;-58
2024/03/24 11:44:01;;;;;;;7.10;3.10;;;;;;;;;;5088950;28;20030;-59
2024/03/24 11:46:28;;;;;;;5.00;2.47;;;;;;;;;;5090432;28;20103;-58
2024/03/24 11:48:54;;;;;;;5.15;2.72;;;;;;;;;;5086917;28;20089;-58
2024/03/24 11:51:21;;;;;;;3.58;2.53;;;;;;;;;;5090574;28;20081;-59
2024/03/24 11:53:49;;;;;;;3.70;2.35;;;;;;;;;;5089956;28;20471;-56
2024/03/24 11:56:15;;;;;;;5.40;2.88;;;;;;;;;;5104396;28;20081;-59
2024/03/24 11:58:42;;;;;;;4.50;2.78;;;;;;;;;;5085010;28;20479;-58
2024/03/24 12:01:08;;;;;;;8.75;2.83;;;;;;;;;;5093972;28;20471;-58
2024/03/24 12:03:34;;;;;;;7.38;2.63;;;;;;;;;;5093882;28;20177;-58
2024/03/24 12:06:00;;;;;;;4.03;2.88;;;;;;;;;;5086986;28;20103;-57
2024/03/24 12:08:28;;;;;;;5.22;2.78;;;;;;;;;;5092519;28;20024;-59
2024/03/24 12:10:54;;;;;;;3.83;2.60;;;;;;;;;;5099009;28;20106;-57
2024/03/24 12:13:20;;;;;;;6.10;2.40;;;;;;;;;;5083069;28;20119;-58
2024/03/24 12:15:46;;;;;;;4.43;2.35;;;;;;;;;;5083101;28;20036;-59
2024/03/24 12:18:13;;;;;;;5.38;2.65;;;;;;;;;;5075157;28;20057;-57
2024/03/24 12:20:39;;;;;;;3.38;2.20;;;;;;;;;;5086468;28;20035;-55
2024/03/24 12:23:05;;;;;;;10.25;2.45;;;;;;;;;;5082553;28;20044;-58
2024/03/24 12:25:31;;;;;;;4.55;2.47;;;;;;;;;;5085541;28;21229;-58
2024/03/24 12:27:57;;;;;;;6.38;2.40;;;;;;;;;;5093363;28;20046;-58
2024/03/24 12:30:24;;;;;;;5.65;2.60;;;;;;;;;;5093286;28;20051;-58
2024/03/24 12:32:50;;;;;;;3.40;2.38;;;;;;;;;;5082507;28;20043;-57
2024/03/24 12:35:17;;;;;;;5.90;2.38;;;;;;;;;;5093344;28;20043;-59
2024/03/24 12:37:45;;;;;;;7.95;2.95;;;;;;;;;;5088543;28;20100;-59
2024/03/24 12:40:15;;;;;;;5.90;2.75;;;;;;;;;;5091544;28;20424;-58
2024/03/24 12:42:41;;;;;;;6.10;2.25;;;;;;;;;;5093010;28;20047;-59
2024/03/24 12:45:08;;;;;;;6.28;2.88;;;;;;;;;;5108119;27;20458;-59
2024/03/24 12:47:34;;;;;;;5.07;2.40;;;;;;;;;;5093427;28;20488;-59
2024/03/24 12:50:00;;;;;;;3.63;2.20;;;;;;;;;;5084867;28;20024;-59
2024/03/24 12:52:27;;;;;;;3.47;2.30;;;;;;;;;;5082789;28;20500;-56
2024/03/24 12:54:53;;;;;;;5.55;2.38;;;;;;;;;;5085333;28;20101;-59
2024/03/24 12:57:19;;;;;;;5.85;2.22;;;;;;;;;;5091451;28;20467;-59
2024/03/24 12:59:54;;;;;;;6.57;2.97;;;;;;;;;;5089431;28;20548;-58
2024/03/24 13:02:21;;;;;;;3.53;1.80;;;;;;;;;;5089405;28;20024;-59
2024/03/24 13:04:47;;;;;;;3.92;2.30;;;;;;;;;;5088510;28;20488;-59
2024/03/24 13:07:16;;;;;;;3.53;1.88;;;;;;;;;;5090582;28;20043;-59
2024/03/24 13:09:42;;;;;;;5.95;2.50;;;;;;;;;;5090672;28;20047;-59
2024/03/24 13:12:09;;;;;;;3.22;1.65;;;;;;;;;;5087536;28;20038;-59
2024/03/24 13:14:35;;;;;;;5.65;2.60;;;;;;;;;;5090089;28;20070;-59
2024/03/24 13:17:06;;;;;;;3.80;1.88;;;;;;;;;;5088518;28;20510;-56
2024/03/24 13:19:37;;;;;;;2.22;1.65;;;;;;;;;;5086293;28;20032;-58
2024/03/24 13:22:04;;;;;;;4.03;1.58;;;;;;;;;;5088367;28;20145;-57
2024/03/24 13:24:35;;;;;;;2.47;1.75;;;;;;;;;;5090578;28;20028;-59
2024/03/24 13:27:04;;;;;;;2.13;1.58;;;;;;;;;;5089806;28;20403;-59
2024/03/24 13:29:29;;;;;;;2.78;1.67;;;;;;;;;;5089649;28;20032;-59
2024/03/24 13:31:55;;;;;;;5.95;1.58;;;;;;;;;;5087316;28;20090;-59
2024/03/24 13:34:21;;;;;;;3.08;1.90;;;;;;;;;;5087446;28;20024;-59
2024/03/24 13:36:59;;;;;;;1.65;1.35;;;;;;;;;;5087157;28;21261;-59
2024/03/24 13:39:28;;;;;;;3.58;1.55;;;;;;;;;;5087244;28;20031;-59
2024/03/24 13:42:13;;;;;;;2.53;1.30;;;;;;;;;;5088239;28;20107;-59
2024/03/24 13:44:39;;;;;;;2.08;1.30;;;;;;;;;;5090295;28;20118;-59
2024/03/24 13:47:21;;;;;;;4.32;1.38;;;;;;;;;;5090219;28;20144;-59
2024/03/24 13:49:47;;;;;;;1.35;1.15;;;;;;;;;;5088719;28;20032;-59
2024/03/24 13:52:14;;;;;;;1.45;1.10;;;;;;;;;;5087368;28;20437;-59
2024/03/24 13:54:41;;;;;;;3.95;3.40;;;;;;;;;;5088832;28;20165;-59
2024/03/24 13:57:07;;;;;;;1.77;1.05;;;;;;;;;;5085458;28;20024;-59
2024/03/24 13:59:33;;;;;;;1.20;1.05;;;;;;;;;;5089169;28;20411;-59
2024/03/24 14:02:00;;;;;;;1.15;0.73;;;;;;;;;;5086360;28;20024;-60
2024/03/24 14:04:25;;;;;;;0.77;0.57;;;;;;;;;;5088293;28;20031;-60
2024/03/24 14:06:51;;;;;;;1.38;0.60;;;;;;;;;;5090267;28;20031;-60
2024/03/24 14:09:18;;;;;;;0.80;0.32;;;;;;;;;;5082098;28;20040;-60
2024/03/24 14:11:44;;;;;;;0.85;0.47;;;;;;;;;;5084552;28;20357;-60
2024/03/24 14:14:30;;;;;;;1.00;0.60;;;;;;;;;;5079942;28;20039;-59
2024/03/24 14:17:23;;;;;;;1.15;0.60;;;;;;;;;;5084555;28;20063;-60
2024/03/24 14:19:52;;;;;;;0.55;0.47;;;;;;;;;;5086064;28;20035;-61
2024/03/24 14:22:24;;;;;;;2.15;0.40;;;;;;;;;;5084311;28;20032;-60
2024/03/24 14:24:50;;;;;;;0.60;0.50;;;;;;;;;;5087279;28;20024;-60
2024/03/24 14:27:16;;;;;;;0.95;0.68;;;;;;;;;;5086234;28;20502;-60
2024/03/24 14:29:42;;;;;;;1.85;0.47;;;;;;;;;;5089526;28;20024;-57
2024/03/24 14:32:08;;;;;;;0.98;0.52;;;;;;;;;;5083688;28;20438;-59
2024/03/24 14:34:34;;;;;;;0.98;0.50;;;;;;;;;;5088986;28;20091;-60
2024/03/24 14:37:00;;;;;;;0.68;0.50;;;;;;;;;;5087494;28;20036;-60
2024/03/24 14:39:43;;;;;;;2.45;0.50;;;;;;;;;;5081751;28;20031;-59